sensor_id;sensor_type;location;lat;lon;timestamp;pressure;altitude;pressure_sealevel;temperature
76009;BMP280;64700;52.130;21.270;2023-04-24T00:00:10;99773.91;;;21.34
76009;BMP280;64700;52.130;21.270;2023-04-24T00:02:37;99763.03;;;21.34
76009;BMP280;64700;52.130;21.270;2023-04-24T00:05:05;99757.31;;;21.32
76009;BMP280;64700;52.130;21.270;2023-04-24T00:07:31;99764.00;;;21.31
76009;BMP280;64700;52.130;21.270;2023-04-24T00:09:56;99750.13;;;21.29
76009;BMP280;64700;52.130;21.270;2023-04-24T00:12:21;99751.63;;;21.30
76009;BMP280;64700;52.130;21.270;2023-04-24T00:14:47;99745.91;;;21.28
76009;BMP280;64700;52.130;21.270;2023-04-24T00:17:12;99758.28;;;21.29
76009;BMP280;64700;52.130;21.270;2023-04-24T00:19:37;99745.19;;;21.27
76009;BMP280;64700;52.130;21.270;2023-04-24T00:22:02;99745.91;;;21.28
76009;BMP280;64700;52.130;21.270;2023-04-24T00:24:28;99750.13;;;21.29
76009;BMP280;64700;52.130;21.270;2023-04-24T00:26:53;99750.88;;;21.29
76009;BMP280;64700;52.130;21.270;2023-04-24T00:29:18;99747.41;;;21.29
76009;BMP280;64700;52.130;21.270;2023-04-24T00:31:44;99737.28;;;21.29
76009;BMP280;64700;52.130;21.270;2023-04-24T00:34:09;99736.81;;;21.31
76009;BMP280;64700;52.130;21.270;2023-04-24T00:36:35;99733.81;;;21.29
76009;BMP280;64700;52.130;21.270;2023-04-24T00:39:00;99735.78;;;21.28
76009;BMP280;64700;52.130;21.270;2023-04-24T00:41:25;99725.16;;;21.25
76009;BMP280;64700;52.130;21.270;2023-04-24T00:43:51;99736.03;;;21.25
76009;BMP280;64700;52.130;21.270;2023-04-24T00:46:16;99740.25;;;21.26
76009;BMP280;64700;52.130;21.270;2023-04-24T00:48:42;99741.22;;;21.28
76009;BMP280;64700;52.130;21.270;2023-04-24T00:51:07;99735.31;;;21.30
76009;BMP280;64700;52.130;21.270;2023-04-24T00:53:33;99738.50;;;21.28
76009;BMP280;64700;52.130;21.270;2023-04-24T00:55:58;99736.31;;;21.27
76009;BMP280;64700;52.130;21.270;2023-04-24T00:58:23;99737.03;;;21.27
76009;BMP280;64700;52.130;21.270;2023-04-24T01:00:49;99734.31;;;21.27
76009;BMP280;64700;52.130;21.270;2023-04-24T01:03:17;99727.41;;;21.26
76009;BMP280;64700;52.130;21.270;2023-04-24T01:05:43;99730.13;;;21.26
76009;BMP280;64700;52.130;21.270;2023-04-24T01:08:08;99734.06;;;21.25
76009;BMP280;64700;52.130;21.270;2023-04-24T01:10:34;99731.34;;;21.25
76009;BMP280;64700;52.130;21.270;2023-04-24T01:12:59;99730.13;;;21.26
76009;BMP280;64700;52.130;21.270;2023-04-24T01:15:25;99727.13;;;21.24
76009;BMP280;64700;52.130;21.270;2023-04-24T01:17:50;99731.06;;;21.23
76009;BMP280;64700;52.130;21.270;2023-04-24T01:20:15;99724.16;;;21.22
76009;BMP280;64700;52.130;21.270;2023-04-24T01:22:42;99719.47;;;21.23
76009;BMP280;64700;52.130;21.270;2023-04-24T01:25:07;99718.22;;;21.24
76009;BMP280;64700;52.130;21.270;2023-04-24T01:27:33;99714.75;;;21.23
76009;BMP280;64700;52.130;21.270;2023-04-24T01:29:58;99716.00;;;21.22
76009;BMP280;64700;52.130;21.270;2023-04-24T01:32:23;99714.75;;;21.23
76009;BMP280;64700;52.130;21.270;2023-04-24T01:34:49;99709.59;;;21.25
76009;BMP280;64700;52.130;21.270;2023-04-24T01:37:14;99713.06;;;21.26
76009;BMP280;64700;52.130;21.270;2023-04-24T01:39:40;99712.06;;;21.29
76009;BMP280;64700;52.130;21.270;2023-04-24T01:42:05;99711.81;;;21.27
76009;BMP280;64700;52.130;21.270;2023-04-24T01:44:32;99717.97;;;21.27
76009;BMP280;64700;52.130;21.270;2023-04-24T01:46:58;99717.97;;;21.27
76009;BMP280;64700;52.130;21.270;2023-04-24T01:49:23;99717.28;;;21.27
76009;BMP280;64700;52.130;21.270;2023-04-24T01:51:48;99701.91;;;21.24
76009;BMP280;64700;52.130;21.270;2023-04-24T01:54:14;99701.91;;;21.24
76009;BMP280;64700;52.130;21.270;2023-04-24T01:56:40;99710.06;;;21.24
76009;BMP280;64700;52.130;21.270;2023-04-24T01:59:05;99714.28;;;21.25
76009;BMP280;64700;52.130;21.270;2023-04-24T02:01:34;99714.28;;;21.25
76009;BMP280;64700;52.130;21.270;2023-04-24T02:04:01;99707.84;;;21.22
76009;BMP280;64700;52.130;21.270;2023-04-24T02:06:26;99705.34;;;21.19
76009;BMP280;64700;52.130;21.270;2023-04-24T02:08:51;99705.53;;;21.15
76009;BMP280;64700;52.130;21.270;2023-04-24T02:11:17;99697.38;;;21.15
76009;BMP280;64700;52.130;21.270;2023-04-24T02:13:42;99691.00;;;21.18
76009;BMP280;64700;52.130;21.270;2023-04-24T02:16:07;99697.66;;;21.17
76009;BMP280;64700;52.130;21.270;2023-04-24T02:18:32;99686.50;;;21.15
76009;BMP280;64700;52.130;21.270;2023-04-24T02:20:57;99687.78;;;21.14
76009;BMP280;64700;52.130;21.270;2023-04-24T02:23:23;99680.34;;;21.15
76009;BMP280;64700;52.130;21.270;2023-04-24T02:25:48;99683.06;;;21.15
76009;BMP280;64700;52.130;21.270;2023-04-24T02:28:13;99694.91;;;21.12
76009;BMP280;64700;52.130;21.270;2023-04-24T02:30:38;99695.66;;;21.12
76009;BMP280;64700;52.130;21.270;2023-04-24T02:33:04;99693.91;;;21.09
76009;BMP280;64700;52.130;21.270;2023-04-24T02:35:29;99685.75;;;21.09
76009;BMP280;64700;52.130;21.270;2023-04-24T02:37:54;99688.91;;;21.02
76009;BMP280;64700;52.130;21.270;2023-04-24T02:40:20;99677.81;;;21.06
76009;BMP280;64700;52.130;21.270;2023-04-24T02:42:45;99680.50;;;21.00
76009;BMP280;64700;52.130;21.270;2023-04-24T02:45:10;99684.19;;;20.97
76009;BMP280;64700;52.130;21.270;2023-04-24T02:47:35;99673.06;;;20.95
76009;BMP280;64700;52.130;21.270;2023-04-24T02:50:01;99670.59;;;20.97
76009;BMP280;64700;52.130;21.270;2023-04-24T02:52:26;99665.09;;;20.91
76009;BMP280;64700;52.130;21.270;2023-04-24T02:54:52;99671.75;;;20.90
76009;BMP280;64700;52.130;21.270;2023-04-24T02:57:18;99673.00;;;20.89
76009;BMP280;64700;52.130;21.270;2023-04-24T02:59:43;99665.84;;;20.92
76009;BMP280;64700;52.130;21.270;2023-04-24T03:02:08;99665.34;;;20.88
76009;BMP280;64700;52.130;21.270;2023-04-24T03:04:34;99668.06;;;20.88
76009;BMP280;64700;52.130;21.270;2023-04-24T03:06:59;99665.22;;;21.03
76009;BMP280;64700;52.130;21.270;2023-04-24T03:09:24;99658.28;;;21.02
76009;BMP280;64700;52.130;21.270;2023-04-24T03:11:50;99667.13;;;20.97
76009;BMP280;64700;52.130;21.270;2023-04-24T03:14:15;99662.16;;;20.89
76009;BMP280;64700;52.130;21.270;2023-04-24T03:16:40;99663.88;;;20.92
76009;BMP280;64700;52.130;21.270;2023-04-24T03:19:06;99665.59;;;20.90
76009;BMP280;64700;52.130;21.270;2023-04-24T03:21:31;99666.84;;;20.89
76009;BMP280;64700;52.130;21.270;2023-04-24T03:23:56;99670.31;;;20.89
76009;BMP280;64700;52.130;21.270;2023-04-24T03:26:21;99662.38;;;20.86
76009;BMP280;64700;52.130;21.270;2023-04-24T03:28:46;99664.34;;;20.85
76009;BMP280;64700;52.130;21.270;2023-04-24T03:31:12;99664.06;;;20.83
76009;BMP280;64700;52.130;21.270;2023-04-24T03:33:37;99666.56;;;20.87
76009;BMP280;64700;52.130;21.270;2023-04-24T03:36:02;99665.56;;;20.84
76009;BMP280;64700;52.130;21.270;2023-04-24T03:38:27;99664.59;;;20.87
76009;BMP280;64700;52.130;21.270;2023-04-24T03:40:53;99667.31;;;20.87
76009;BMP280;64700;52.130;21.270;2023-04-24T03:43:18;99675.22;;;20.85
76009;BMP280;64700;52.130;21.270;2023-04-24T03:45:43;99668.88;;;20.94
76009;BMP280;64700;52.130;21.270;2023-04-24T03:48:08;99671.53;;;20.88
76009;BMP280;64700;52.130;21.270;2023-04-24T03:50:34;99661.94;;;20.99
76009;BMP280;64700;52.130;21.270;2023-04-24T03:52:59;99665.22;;;21.03
76009;BMP280;64700;52.130;21.270;2023-04-24T03:55:24;99667.41;;;21.04
76009;BMP280;64700;52.130;21.270;2023-04-24T03:57:50;99672.56;;;20.97
76009;BMP280;64700;52.130;21.270;2023-04-24T04:00:15;99668.38;;;20.96
76009;BMP280;64700;52.130;21.270;2023-04-24T04:02:40;99671.59;;;20.94
76009;BMP280;64700;52.130;21.270;2023-04-24T04:05:05;99670.09;;;20.99
76009;BMP280;64700;52.130;21.270;2023-04-24T04:07:31;99663.44;;;21.00
76009;BMP280;64700;52.130;21.270;2023-04-24T04:09:56;99669.91;;;21.02
76009;BMP280;64700;52.130;21.270;2023-04-24T04:12:21;99671.13;;;21.01
76009;BMP280;64700;52.130;21.270;2023-04-24T04:14:46;99680.72;;;20.97
76009;BMP280;64700;52.130;21.270;2023-04-24T04:17:11;99683.38;;;20.85
76009;BMP280;64700;52.130;21.270;2023-04-24T04:19:37;99684.84;;;20.86
76009;BMP280;64700;52.130;21.270;2023-04-24T04:22:02;99685.69;;;20.98
76009;BMP280;64700;52.130;21.270;2023-04-24T04:24:27;99687.66;;;20.98
76009;BMP280;64700;52.130;21.270;2023-04-24T04:26:53;99695.00;;;20.91
76009;BMP280;64700;52.130;21.270;2023-04-24T04:29:21;99693.22;;;20.83
76009;BMP280;64700;52.130;21.270;2023-04-24T04:31:47;99692.47;;;20.82
76009;BMP280;64700;52.130;21.270;2023-04-24T04:34:12;99690.25;;;20.81
76009;BMP280;64700;52.130;21.270;2023-04-24T04:36:39;99688.75;;;20.80
76009;BMP280;64700;52.130;21.270;2023-04-24T04:39:05;99683.09;;;20.78
76009;BMP280;64700;52.130;21.270;2023-04-24T04:41:30;99686.31;;;20.82
76009;BMP280;64700;52.130;21.270;2023-04-24T04:43:55;99683.59;;;20.82
76009;BMP280;64700;52.130;21.270;2023-04-24T04:46:23;99686.31;;;20.82
76009;BMP280;64700;52.130;21.270;2023-04-24T04:48:51;99683.59;;;20.82
76009;BMP280;64700;52.130;21.270;2023-04-24T04:51:16;99684.31;;;20.82
76009;BMP280;64700;52.130;21.270;2023-04-24T04:53:41;99689.56;;;20.86
76009;BMP280;64700;52.130;21.270;2023-04-24T04:56:06;99682.63;;;20.85
76009;BMP280;64700;52.130;21.270;2023-04-24T04:58:32;99680.66;;;20.85
76009;BMP280;64700;52.130;21.270;2023-04-24T05:00:58;99675.97;;;20.86
76009;BMP280;64700;52.130;21.270;2023-04-24T05:03:23;99674.06;;;20.98
76009;BMP280;64700;52.130;21.270;2023-04-24T05:05:48;99676.31;;;21.05
76009;BMP280;64700;52.130;21.270;2023-04-24T05:08:14;99664.22;;;21.06
76009;BMP280;64700;52.130;21.270;2023-04-24T05:10:39;99668.44;;;21.07
76009;BMP280;64700;52.130;21.270;2023-04-24T05:13:04;99669.47;;;21.09
76009;BMP280;64700;52.130;21.270;2023-04-24T05:15:30;99666.50;;;21.13
76009;BMP280;64700;52.130;21.270;2023-04-24T05:17:55;99670.22;;;21.15
76009;BMP280;64700;52.130;21.270;2023-04-24T05:20:20;99671.72;;;21.22
76009;BMP280;64700;52.130;21.270;2023-04-24T05:22:46;99663.84;;;21.24
76009;BMP280;64700;52.130;21.270;2023-04-24T05:25:11;99660.88;;;21.27
76009;BMP280;64700;52.130;21.270;2023-04-24T05:27:37;99673.19;;;21.17
76009;BMP280;64700;52.130;21.270;2023-04-24T05:30:02;99672.84;;;21.04
76009;BMP280;64700;52.130;21.270;2023-04-24T05:32:28;99671.59;;;20.94
76009;BMP280;64700;52.130;21.270;2023-04-24T05:34:53;99667.38;;;20.93
76009;BMP280;64700;52.130;21.270;2023-04-24T05:37:18;99659.50;;;21.01
76009;BMP280;64700;52.130;21.270;2023-04-24T05:39:43;99666.84;;;20.89
76009;BMP280;64700;52.130;21.270;2023-04-24T05:42:09;99664.59;;;20.82
76009;BMP280;64700;52.130;21.270;2023-04-24T05:44:34;99662.06;;;20.78
76009;BMP280;64700;52.130;21.270;2023-04-24T05:46:59;99654.66;;;20.79
76009;BMP280;64700;52.130;21.270;2023-04-24T05:49:25;99661.34;;;20.78
76009;BMP280;64700;52.130;21.270;2023-04-24T05:51:50;99668.72;;;20.77
76009;BMP280;64700;52.130;21.270;2023-04-24T05:54:16;99659.06;;;20.76
76009;BMP280;64700;52.130;21.270;2023-04-24T05:56:41;99660.31;;;20.75
76009;BMP280;64700;52.130;21.270;2023-04-24T05:59:06;99664.97;;;20.75
76009;BMP280;64700;52.130;21.270;2023-04-24T06:01:32;99668.44;;;20.75
76009;BMP280;64700;52.130;21.270;2023-04-24T06:03:57;99667.69;;;20.75
76009;BMP280;64700;52.130;21.270;2023-04-24T06:06:25;99660.78;;;20.74
76009;BMP280;64700;52.130;21.270;2023-04-24T06:08:52;99662.50;;;20.71
76009;BMP280;64700;52.130;21.270;2023-04-24T06:11:17;99663.25;;;20.72
76009;BMP280;64700;52.130;21.270;2023-04-24T06:13:42;99665.97;;;20.72
76009;BMP280;64700;52.130;21.270;2023-04-24T06:16:07;99659.31;;;20.73
76009;BMP280;64700;52.130;21.270;2023-04-24T06:18:33;99662.50;;;20.71
76009;BMP280;64700;52.130;21.270;2023-04-24T06:20:58;99654.63;;;20.73
76009;BMP280;64700;52.130;21.270;2023-04-24T06:23:23;99660.53;;;20.72
76009;BMP280;64700;52.130;21.270;2023-04-24T06:25:49;99653.88;;;20.73
76009;BMP280;64700;52.130;21.270;2023-04-24T06:28:15;99645.22;;;20.74
76009;BMP280;64700;52.130;21.270;2023-04-24T06:30:40;99641.75;;;20.74
76009;BMP280;64700;52.130;21.270;2023-04-24T06:33:06;99639.31;;;20.76
76009;BMP280;64700;52.130;21.270;2023-04-24T06:35:31;99634.44;;;20.80
76009;BMP280;64700;52.130;21.270;2023-04-24T06:37:56;99629.47;;;20.78
76009;BMP280;64700;52.130;21.270;2023-04-24T06:40:22;99631.22;;;20.81
76009;BMP280;64700;52.130;21.270;2023-04-24T06:42:47;99626.03;;;20.83
76009;BMP280;64700;52.130;21.270;2023-04-24T06:45:12;99627.06;;;20.86
76009;BMP280;64700;52.130;21.270;2023-04-24T06:47:37;99628.78;;;20.89
76009;BMP280;64700;52.130;21.270;2023-04-24T06:50:03;99628.28;;;20.90
76009;BMP280;64700;52.130;21.270;2023-04-24T06:52:28;99627.34;;;20.94
76009;BMP280;64700;52.130;21.270;2023-04-24T06:54:59;99617.75;;;20.98
76009;BMP280;64700;52.130;21.270;2023-04-24T06:57:24;99623.41;;;21.00
76009;BMP280;64700;52.130;21.270;2023-04-24T06:59:50;99621.22;;;21.04
76009;BMP280;64700;52.130;21.270;2023-04-24T07:02:15;99618.25;;;21.02
76009;BMP280;64700;52.130;21.270;2023-04-24T07:04:40;99616.28;;;21.03
76009;BMP280;64700;52.130;21.270;2023-04-24T07:07:06;99616.00;;;21.01
76009;BMP280;64700;52.130;21.270;2023-04-24T07:09:32;99617.50;;;21.02
76009;BMP280;64700;52.130;21.270;2023-04-24T07:12:00;99612.59;;;21.06
76009;BMP280;64700;52.130;21.270;2023-04-24T07:14:25;99616.78;;;21.07
76009;BMP280;64700;52.130;21.270;2023-04-24T07:16:50;99610.13;;;21.08
76009;BMP280;64700;52.130;21.270;2023-04-24T07:19:15;99604.47;;;21.11
76009;BMP280;64700;52.130;21.270;2023-04-24T07:21:40;99605.47;;;21.14
76009;BMP280;64700;52.130;21.270;2023-04-24T07:24:06;99601.53;;;21.15
76009;BMP280;64700;52.130;21.270;2023-04-24T07:26:35;99596.59;;;21.19
76009;BMP280;64700;52.130;21.270;2023-04-24T07:29:00;99603.75;;;21.22
76009;BMP280;64700;52.130;21.270;2023-04-24T07:31:25;99610.72;;;21.23
76009;BMP280;64700;52.130;21.270;2023-04-24T07:33:51;99608.50;;;21.27
76009;BMP280;64700;52.130;21.270;2023-04-24T07:36:16;99603.56;;;21.25
76009;BMP280;64700;52.130;21.270;2023-04-24T07:38:46;99604.28;;;21.26
76009;BMP280;64700;52.130;21.270;2023-04-24T07:41:12;99608.50;;;21.27
76009;BMP280;64700;52.130;21.270;2023-04-24T07:43:37;99601.06;;;21.27
76009;BMP280;64700;52.130;21.270;2023-04-24T07:46:02;99604.06;;;21.29
76009;BMP280;64700;52.130;21.270;2023-04-24T07:48:28;99595.41;;;21.31
76009;BMP280;64700;52.130;21.270;2023-04-24T07:50:53;99597.16;;;21.34
76009;BMP280;64700;52.130;21.270;2023-04-24T07:53:20;99598.63;;;21.35
76009;BMP280;64700;52.130;21.270;2023-04-24T07:55:45;99594.66;;;21.36
76009;BMP280;64700;52.130;21.270;2023-04-24T07:58:11;99592.69;;;21.37
76009;BMP280;64700;52.130;21.270;2023-04-24T08:00:36;99585.75;;;21.36
76009;BMP280;64700;52.130;21.270;2023-04-24T08:03:01;99582.56;;;21.37
76009;BMP280;64700;52.130;21.270;2023-04-24T08:05:26;99577.91;;;21.38
76009;BMP280;64700;52.130;21.270;2023-04-24T08:07:53;99580.63;;;21.38
76009;BMP280;64700;52.130;21.270;2023-04-24T08:10:19;99576.66;;;21.39
76009;BMP280;64700;52.130;21.270;2023-04-24T08:12:45;99582.34;;;21.41
76009;BMP280;64700;52.130;21.270;2023-04-24T08:15:10;99577.16;;;21.43
76009;BMP280;64700;52.130;21.270;2023-04-24T08:17:35;99575.19;;;21.43
76009;BMP280;64700;52.130;21.270;2023-04-24T08:20:01;99573.47;;;21.46
76009;BMP280;64700;52.130;21.270;2023-04-24T08:22:29;99574.19;;;21.46
76009;BMP280;64700;52.130;21.270;2023-04-24T08:24:54;99572.22;;;21.47
76009;BMP280;64700;52.130;21.270;2023-04-24T08:27:21;99567.53;;;21.47
76009;BMP280;64700;52.130;21.270;2023-04-24T08:29:47;99571.47;;;21.46
76009;BMP280;64700;52.130;21.270;2023-04-24T08:32:12;99568.03;;;21.46
76009;BMP280;64700;52.130;21.270;2023-04-24T08:34:37;99566.03;;;21.46
76009;BMP280;64700;52.130;21.270;2023-04-24T08:37:02;99568.25;;;21.48
76009;BMP280;64700;52.130;21.270;2023-04-24T08:39:27;99570.00;;;21.51
76009;BMP280;64700;52.130;21.270;2023-04-24T08:41:53;99571.47;;;21.52
76009;BMP280;64700;52.130;21.270;2023-04-24T08:44:18;99573.00;;;21.53
76009;BMP280;64700;52.130;21.270;2023-04-24T08:46:44;99570.03;;;21.56
76009;BMP280;64700;52.130;21.270;2023-04-24T08:49:11;99563.84;;;21.56
76009;BMP280;64700;52.130;21.270;2023-04-24T08:51:37;99561.13;;;21.56
76009;BMP280;64700;52.130;21.270;2023-04-24T08:54:02;99553.94;;;21.53
76009;BMP280;64700;52.130;21.270;2023-04-24T08:56:28;99569.28;;;21.61
76009;BMP280;64700;52.130;21.270;2023-04-24T08:58:55;99568.53;;;21.61
76009;BMP280;64700;52.130;21.270;2023-04-24T09:01:21;99574.25;;;21.63
76009;BMP280;64700;52.130;21.270;2023-04-24T09:03:48;99575.22;;;21.65
76009;BMP280;64700;52.130;21.270;2023-04-24T09:06:13;99565.34;;;21.68
76009;BMP280;64700;52.130;21.270;2023-04-24T09:08:39;99566.09;;;21.68
76009;BMP280;64700;52.130;21.270;2023-04-24T09:11:06;99575.75;;;21.69
76009;BMP280;64700;52.130;21.270;2023-04-24T09:13:31;99568.56;;;21.72
76009;BMP280;64700;52.130;21.270;2023-04-24T09:15:56;99568.09;;;21.73
76009;BMP280;64700;52.130;21.270;2023-04-24T09:18:22;99560.16;;;21.75
76009;BMP280;64700;52.130;21.270;2023-04-24T09:20:57;99562.66;;;21.79
76009;BMP280;64700;52.130;21.270;2023-04-24T09:23:22;99566.09;;;21.80
76009;BMP280;64700;52.130;21.270;2023-04-24T09:25:48;99554.72;;;21.81
76009;BMP280;64700;52.130;21.270;2023-04-24T09:28:18;99559.72;;;21.83
76009;BMP280;64700;52.130;21.270;2023-04-24T09:30:44;99559.41;;;21.81
76009;BMP280;64700;52.130;21.270;2023-04-24T09:33:15;99551.53;;;21.83
76009;BMP280;64700;52.130;21.270;2023-04-24T09:35:41;99553.75;;;21.84
76009;BMP280;64700;52.130;21.270;2023-04-24T09:38:07;99554.00;;;21.86
76009;BMP280;64700;52.130;21.270;2023-04-24T09:40:33;99541.38;;;21.89
76009;BMP280;64700;52.130;21.270;2023-04-24T09:42:59;99537.66;;;21.92
76009;BMP280;64700;52.130;21.270;2023-04-24T09:45:35;99543.34;;;21.94
76009;BMP280;64700;52.130;21.270;2023-04-24T09:48:01;99546.81;;;21.94
76009;BMP280;64700;52.130;21.270;2023-04-24T09:50:26;99554.47;;;21.96
76009;BMP280;64700;52.130;21.270;2023-04-24T09:52:56;99544.84;;;22.00
76009;BMP280;64700;52.130;21.270;2023-04-24T09:55:21;99537.66;;;22.03
76009;BMP280;64700;52.130;21.270;2023-04-24T09:57:47;99534.94;;;22.03
76009;BMP280;64700;52.130;21.270;2023-04-24T10:00:13;99544.59;;;22.04
76009;BMP280;64700;52.130;21.270;2023-04-24T10:02:38;99542.63;;;22.04
76009;BMP280;64700;52.130;21.270;2023-04-24T10:05:04;99540.88;;;22.07
76009;BMP280;64700;52.130;21.270;2023-04-24T10:07:32;99538.91;;;22.07
76009;BMP280;64700;52.130;21.270;2023-04-24T10:09:57;99537.66;;;22.08
76009;BMP280;64700;52.130;21.270;2023-04-24T10:12:23;99542.13;;;22.11
76009;BMP280;64700;52.130;21.270;2023-04-24T10:14:48;99541.13;;;22.03
76009;BMP280;64700;52.130;21.270;2023-04-24T10:17:13;99537.19;;;22.10
76009;BMP280;64700;52.130;21.270;2023-04-24T10:19:39;99539.66;;;22.13
76009;BMP280;64700;52.130;21.270;2023-04-24T10:22:05;99523.34;;;22.13
76009;BMP280;64700;52.130;21.270;2023-04-24T10:24:31;99530.97;;;22.15
76009;BMP280;64700;52.130;21.270;2023-04-24T10:26:57;99523.56;;;22.15
76009;BMP280;64700;52.130;21.270;2023-04-24T10:29:22;99517.38;;;22.15
76009;BMP280;64700;52.130;21.270;2023-04-24T10:31:48;99522.06;;;22.09
76009;BMP280;64700;52.130;21.270;2023-04-24T10:34:14;99522.31;;;22.16
76009;BMP280;64700;52.130;21.270;2023-04-24T10:36:41;99518.38;;;22.17
76009;BMP280;64700;52.130;21.270;2023-04-24T10:39:09;99506.72;;;22.17
76009;BMP280;64700;52.130;21.270;2023-04-24T10:41:36;99503.28;;;22.16
76009;BMP280;64700;52.130;21.270;2023-04-24T10:44:05;99509.69;;;22.19
76009;BMP280;64700;52.130;21.270;2023-04-24T10:46:31;99509.47;;;22.17
76009;BMP280;64700;52.130;21.270;2023-04-24T10:48:56;99510.69;;;22.16
76009;BMP280;64700;52.130;21.270;2023-04-24T10:51:23;99503.75;;;22.15
76009;BMP280;64700;52.130;21.270;2023-04-24T10:53:51;99505.25;;;22.16
76009;BMP280;64700;52.130;21.270;2023-04-24T10:56:17;99505.25;;;22.16
76009;BMP280;64700;52.130;21.270;2023-04-24T10:58:43;99497.59;;;22.14
76009;BMP280;64700;52.130;21.270;2023-04-24T11:01:32;99494.13;;;22.14
76009;BMP280;64700;52.130;21.270;2023-04-24T11:37:36;99486.69;;;22.09
76009;BMP280;64700;52.130;21.270;2023-04-24T11:40:23;99471.34;;;22.11
76009;BMP280;64700;52.130;21.270;2023-04-24T11:42:51;99471.59;;;22.08
76009;BMP280;64700;52.130;21.270;2023-04-24T11:45:17;99466.66;;;22.12
76009;BMP280;64700;52.130;21.270;2023-04-24T11:47:43;99472.84;;;22.12
76009;BMP280;64700;52.130;21.270;2023-04-24T11:50:10;99467.84;;;22.11
76009;BMP280;64700;52.130;21.270;2023-04-24T11:52:39;99463.66;;;22.15
76009;BMP280;64700;52.130;21.270;2023-04-24T11:55:06;99468.13;;;22.13
76009;BMP280;64700;52.130;21.270;2023-04-24T11:57:31;99458.47;;;22.12
76009;BMP280;64700;52.130;21.270;2023-04-24T11:59:59;99458.72;;;22.08
76009;BMP280;64700;52.130;21.270;2023-04-24T12:02:25;99460.69;;;22.08
76009;BMP280;64700;52.130;21.270;2023-04-24T12:04:54;99461.44;;;22.08
76009;BMP280;64700;52.130;21.270;2023-04-24T12:07:19;99460.69;;;22.08
76009;BMP280;64700;52.130;21.270;2023-04-24T12:09:48;99456.00;;;22.08
76009;BMP280;64700;52.130;21.270;2023-04-24T12:12:15;99452.53;;;22.08
76009;BMP280;64700;52.130;21.270;2023-04-24T12:14:44;99455.25;;;22.08
76009;BMP280;64700;52.130;21.270;2023-04-24T12:17:09;99461.94;;;22.07
76009;BMP280;64700;52.130;21.270;2023-04-24T12:19:34;99450.31;;;22.06
76009;BMP280;64700;52.130;21.270;2023-04-24T12:22:04;99449.56;;;22.06
76009;BMP280;64700;52.130;21.270;2023-04-24T12:24:30;99443.38;;;22.05
76009;BMP280;64700;52.130;21.270;2023-04-24T12:26:55;99440.66;;;22.05
76009;BMP280;64700;52.130;21.270;2023-04-24T12:29:21;99437.94;;;22.05
76009;BMP280;64700;52.130;21.270;2023-04-24T12:31:46;99432.50;;;22.05
76009;BMP280;64700;52.130;21.270;2023-04-24T12:34:18;99426.31;;;22.05
76009;BMP280;64700;52.130;21.270;2023-04-24T12:36:43;99430.53;;;22.06
76009;BMP280;64700;52.130;21.270;2023-04-24T12:39:14;99428.03;;;22.08
76009;BMP280;64700;52.130;21.270;2023-04-24T12:41:48;99426.78;;;22.09
76009;BMP280;64700;52.130;21.270;2023-04-24T12:44:13;99416.91;;;22.06
76009;BMP280;64700;52.130;21.270;2023-04-24T12:46:40;99419.63;;;22.11
76009;BMP280;64700;52.130;21.270;2023-04-24T12:49:05;99424.06;;;22.09
76009;BMP280;64700;52.130;21.270;2023-04-24T12:51:30;99442.38;;;22.08
76009;BMP280;64700;52.130;21.270;2023-04-24T12:53:55;99447.06;;;22.08
76009;BMP280;64700;52.130;21.270;2023-04-24T12:56:21;99455.75;;;22.06
76009;BMP280;64700;52.130;21.270;2023-04-24T12:58:47;99465.91;;;22.06
76009;BMP280;64700;52.130;21.270;2023-04-24T13:01:12;99467.88;;;22.05
76009;BMP280;64700;52.130;21.270;2023-04-24T13:03:37;99476.53;;;22.04
76009;BMP280;64700;52.130;21.270;2023-04-24T13:06:02;99468.16;;;22.02
76009;BMP280;64700;52.130;21.270;2023-04-24T13:08:27;99478.28;;;22.01
76009;BMP280;64700;52.130;21.270;2023-04-24T13:10:52;99478.78;;;22.00
76009;BMP280;64700;52.130;21.270;2023-04-24T13:13:18;99477.31;;;21.99
76009;BMP280;64700;52.130;21.270;2023-04-24T13:15:44;99490.19;;;21.98
76009;BMP280;64700;52.130;21.270;2023-04-24T13:18:09;99482.03;;;21.98
76009;BMP280;64700;52.130;21.270;2023-04-24T13:20:34;99481.28;;;21.98
76009;BMP280;64700;52.130;21.270;2023-04-24T13:23:00;99488.22;;;21.99
76009;BMP280;64700;52.130;21.270;2023-04-24T13:25:25;99484.22;;;22.00
76009;BMP280;64700;52.130;21.270;2023-04-24T13:27:51;99477.31;;;21.99
76009;BMP280;64700;52.130;21.270;2023-04-24T13:30:17;99475.09;;;21.97
76009;BMP280;64700;52.130;21.270;2023-04-24T13:32:42;99477.53;;;21.95
76009;BMP280;64700;52.130;21.270;2023-04-24T13:35:07;99468.63;;;21.95
76009;BMP280;64700;52.130;21.270;2023-04-24T13:37:33;99459.00;;;21.94
76009;BMP280;64700;52.130;21.270;2023-04-24T13:39:58;99441.91;;;21.93
76009;BMP280;64700;52.130;21.270;2023-04-24T13:42:23;99435.72;;;21.93
76009;BMP280;64700;52.130;21.270;2023-04-24T13:44:48;99418.66;;;21.92
76009;BMP280;64700;52.130;21.270;2023-04-24T13:47:14;99429.53;;;21.92
76009;BMP280;64700;52.130;21.270;2023-04-24T13:49:39;99418.16;;;21.94
76009;BMP280;64700;52.130;21.270;2023-04-24T13:52:04;99399.09;;;21.94
76009;BMP280;64700;52.130;21.270;2023-04-24T13:54:29;99391.44;;;21.92
76009;BMP280;64700;52.130;21.270;2023-04-24T13:56:57;99397.41;;;21.91
76009;BMP280;64700;52.130;21.270;2023-04-24T13:59:22;99395.91;;;21.90
76009;BMP280;64700;52.130;21.270;2023-04-24T14:01:48;99396.66;;;21.90
76009;BMP280;64700;52.130;21.270;2023-04-24T14:04:13;99391.22;;;21.90
76009;BMP280;64700;52.130;21.270;2023-04-24T14:06:39;99392.66;;;21.91
76009;BMP280;64700;52.130;21.270;2023-04-24T14:09:04;99393.41;;;21.92
76009;BMP280;64700;52.130;21.270;2023-04-24T14:11:29;99391.94;;;21.91
76009;BMP280;64700;52.130;21.270;2023-04-24T14:13:54;99389.94;;;21.91
76009;BMP280;64700;52.130;21.270;2023-04-24T14:16:21;99383.78;;;21.91
76009;BMP280;64700;52.130;21.270;2023-04-24T14:18:46;99390.69;;;21.92
76009;BMP280;64700;52.130;21.270;2023-04-24T14:21:11;99388.72;;;21.92